McGrew, Nebraska
Current Conditions -  °F | °C
As of 5:53 PM on Friday 28 Nov 2014 (Local Time) from KBFF Reporting Station
Clear Clear  
Wind Chill:   Ceiling: Unl
Heat Index:   Visibility: 10mi
Dew Point: -6°   Wind: 3mph
Humidity: 42%   Direction: 360°N
Pressure: 29.73"   Gusts: NA
Location:  41.75°N, 103.42°W
Report Text: KBFF 290053Z AUTO 36003KT 10SM CLR 07/M06 A2973 RMK AO2 SLP059 T00671056
Loading
Personal Weather Stations






























Interactive Weather Map New forecast layout! Learn more

10-Day Weather Forecast

Advertisements
Track Severe Weather on mobile